Grand Rapids, MI (49512)

11:26 PM EST on December 22, 2014 (GMT -0500)
Cascade | Change Station
CLOSE
Current Station
Personal Weather Station
Location: Grand Rapids, MI
Elevation: 759 ft
Nearby Weather Stations

Elev 759 ft 42.94 °N, 85.50 °W | Updated 5 seconds ago

Light Rain
Light Rain Mist
34.3 °F
Feels Like 34 °F
N
2.0
Wind Variable Wind from ESE
Gusts 7.0 mph

Today
High -- | Low -- °F
--% Chance of Precip.
Yesterday
High -- | Low -- °F
Precip. -- in
8:10 AM 5:11 PM
New Moon, 2% visible
Pressure 29.81 in
Visibility 2.5 miles
Clouds Scattered Clouds 700 ft
Overcast 4400 ft
Windchill 34 °F
Dew Point 33 °F
Humidity 96%
Rainfall 0.17 in
Snow Depth Not available.
UV 0 out of 12
Pollen .10 out of 12
Air Quality Not available.
Flu Activity Not available.
METAR KGRR 230353Z 10014KT 2 1/2SM -RA BR SCT007 OVC044 02/00 A2979 RMK AO2 SLP094 P0003 T00170000

More Conditions Fewer Conditions

Pressure 29.81 in
Visibility 2.5 miles
Clouds Scattered Clouds 700 ft
Overcast 4400 ft
Windchill 34 °F
Dew Point 33 °F
Humidity 96%
Rainfall 0.17 in
Snow Depth Not available.
UV 0 out of 12
Pollen .10 out of 12
Air Quality Not available.
Flu Activity Not available.
METAR KGRR 230353Z 10014KT 2 1/2SM -RA BR SCT007 OVC044 02/00 A2979 RMK AO2 SLP094 P0003 T00170000

More Conditions Fewer Conditions

10-Day Weather Forecast

Almanac

Astronomy

Dec. 22, 2014 Rise Set
Actual Time
Civil Twilight
Nautical Twilight
Astronomical Twilight
Moon
Length of Visible Light
Length of Day
Tomorrow will be .
, % of the Moon is Illuminated

Today's Extremes

State Highs State Lows

Community

WunderPhotos

Upload Photos

1,779,776 photos uploaded!

WunderBlogs® & News

Nearby

Air Quality

  Air Quality AQ Index Pollutant
Not available.

Snow Depth

Station Depth Elevation

Earthquake Activity

City Distance Mag. Time & Date
Minimum magnitude displayed is 2.5.

Coastal Water Temperatures

Place Temperature

Nearby Weather Stations